Shreveport, LA (71107)

6:23 PM CDT on April 26, 2017 (GMT -0500)
MILLCREEK | | Change Station
Active Advisory: Lake Wind Advisory

Elev 282 ft 32.59 °N, 93.85 °W | Updated 36 seconds ago

Overcast
Overcast
59.8 °F
Feels Like 59.8 °F
N
4.0
Wind Variable Wind from West
Gusts 4.0 mph

Today
High -- | Low -- °F
--% Chance of Precip.
Yesterday
High -- | Low -- °F
Precip. -- in
Pressure 29.58 in
Visibility 8.0 miles
Clouds Mostly Cloudy 1000 ft
Overcast 1400 ft
Dew Point 50 °F
Humidity 69%
Rainfall 0.25 in
Snow Depth Not available.
6:33 AM 7:53 PM
New Moon, 0% visible
SPECI KDTN 262313Z 30016G21KT 8SM BKN010 OVC014 17/15 A2958 RMK AO2 LTG DSNT E AND SE RAE09 CIG 006V011 P0000 T01720150 $
Pressure 29.58 in
Visibility 8.0 miles
Clouds Mostly Cloudy 1000 ft
Overcast 1400 ft
Dew Point 50 °F
Humidity 69%
Rainfall 0.25 in
Snow Depth Not available.
6:33 AM 7:53 PM
New Moon, 0% visible
SPECI KDTN 262313Z 30016G21KT 8SM BKN010 OVC014 17/15 A2958 RMK AO2 LTG DSNT E AND SE RAE09 CIG 006V011 P0000 T01720150 $

Get Your Daily Forecast Email!

Thanks for signing up!

Be on the lookout for a verification email in your inbox.

You'll start receiving severe weather alerts in your inbox..

×

10-Day Weather Forecast

Almanac

Astronomy

Apr. 26, 2017 Rise Set
Actual Time
Civil Twilight
Nautical Twilight
Astronomical Twilight
Moon
Length of Visible Light
Length of Day
Tomorrow will be .
, % of the Moon is Illuminated

Today's Extremes

State Highs State Lows

Community

WunderPhotos

WunderBlog® & News

Nearby

Air Quality

  Air Quality AQ Index Pollutant
Not available.

Snow Depth

Station Depth Elevation

Earthquake Activity

City Distance Mag. Time & Date
Minimum magnitude displayed is 2.5.

Coastal Water Temperatures

Place Temperature

Stations

Nearby Weather Stations

Station Location Temp. Windchill Dew Point Humidity Wind Precip. Elev Updated Type
                   

Watches & Warnings

Lake Wind Advisory
Issued: 4:04 PM CDT Apr. 26, 2017 – National Weather Service

... Lake Wind Advisory now in effect until 2 am CDT Thursday...

* event... a pressure gradient will tighten between surface low
pressure over the Southern Plains and across north to southwest
Texas and surface high pressure over the southeast states,
resulting in strong and gusty winds of 15 to 25 mph with higher
gusts of 25 to 30 mph through early Thursday morning with the
winds increasing and shifting to west and northwest 20 to 25 mph
with gusts to 30 to 35 mph with the passage of a cold front.

* Timing... 4 PM CDT to 2 am CDT Thursday.

* Impact... boaters should exercise caution on area lakes due to
rough chop conditions.

Precautionary/preparedness actions...

A lake Wind Advisory indicates that winds will cause rough chop
on area lakes. Small boats will be especially prone to capsizing.



Viii.